createdAt,value
2019-04-24T00:02:02.787Z,11.23
2019-04-24T00:04:31.288Z,8.93
2019-04-24T00:09:38.591Z,12.37
2019-04-24T00:12:29.557Z,8.97
2019-04-24T00:15:36.071Z,8.63
2019-04-24T00:18:09.388Z,10.37
2019-04-24T00:23:18.640Z,10.40
2019-04-24T00:25:32.872Z,9.20
2019-04-24T00:30:40.782Z,9.67
2019-04-24T00:36:32.437Z,11.23
2019-04-24T00:38:54.438Z,10.07
2019-04-24T00:41:24.035Z,9.10
2019-04-24T00:46:27.842Z,10.80
2019-04-24T00:49:01.856Z,12.23
2019-04-24T00:56:33.835Z,15.17
2019-04-24T00:59:17.844Z,11.00
2019-04-24T01:05:07.318Z,11.70
2019-04-24T01:07:36.380Z,12.70
2019-04-24T01:10:21.108Z,14.40
2019-04-24T01:15:27.300Z,13.03
2019-04-24T01:17:55.978Z,14.77
2019-04-24T01:28:07.367Z,11.87
2019-04-24T01:33:35.065Z,15.73
2019-04-24T01:36:34.042Z,12.70
2019-04-24T01:42:15.969Z,14.07
2019-04-24T01:47:21.924Z,11.93
2019-04-24T01:49:59.822Z,13.90
2019-04-24T01:52:36.647Z,12.70
2019-04-24T01:57:33.284Z,12.43
2019-04-24T02:00:17.005Z,12.10
2019-04-24T02:07:53.681Z,13.93
2019-04-24T02:10:44.748Z,12.30
2019-04-24T02:23:10.719Z,13.20
2019-04-24T02:25:53.204Z,12.53
2019-04-24T02:31:06.300Z,13.70
2019-04-24T02:33:50.432Z,17.77
2019-04-24T02:39:43.076Z,14.37
2019-04-24T02:47:42.703Z,14.47
2019-04-24T02:50:07.789Z,14.20
2019-04-24T03:02:57.798Z,13.03
2019-04-24T03:05:21.138Z,13.97
2019-04-24T03:08:14.262Z,14.60
2019-04-24T03:18:35.664Z,12.70
2019-04-24T03:26:55.014Z,11.40
2019-04-24T03:28:50.852Z,14.43
2019-04-24T03:32:04.388Z,14.97
2019-04-24T03:36:42.098Z,12.23
2019-04-24T03:49:08.364Z,13.40
2019-04-24T03:54:14.802Z,13.47
2019-04-24T03:56:50.889Z,15.80
2019-04-24T04:00:15.202Z,14.60
2019-04-24T04:02:50.617Z,14.47
2019-04-24T04:05:13.410Z,15.00
2019-04-24T04:07:46.146Z,14.93
2019-04-24T04:10:09.828Z,13.93
2019-04-24T04:13:07.241Z,16.03
2019-04-24T04:20:36.371Z,13.13
2019-04-24T04:26:00.459Z,13.80
2019-04-24T04:31:24.458Z,13.20
2019-04-24T04:36:55.063Z,15.50
2019-04-24T04:38:51.904Z,11.17
2019-04-24T04:44:26.575Z,15.50
2019-04-24T04:50:17.917Z,12.87
2019-04-24T05:00:35.496Z,16.43
2019-04-24T05:03:23.951Z,15.17
2019-04-24T05:10:47.204Z,12.20
2019-04-24T05:13:24.985Z,17.37
2019-04-24T05:18:26.068Z,16.93
2019-04-24T05:23:46.345Z,11.97
2019-04-24T05:28:53.306Z,12.53
2019-04-24T05:31:43.990Z,10.93
2019-04-24T05:34:19.352Z,11.47
2019-04-24T05:36:49.667Z,14.53
2019-04-24T05:44:31.116Z,11.10
2019-04-24T05:46:56.577Z,9.77
2019-04-24T05:49:57.565Z,10.47
2019-04-24T05:52:39.466Z,11.63
2019-04-24T05:54:55.260Z,9.27
2019-04-24T06:00:29.291Z,10.00
2019-04-24T06:05:36.368Z,10.30
2019-04-24T06:11:04.136Z,11.33
2019-04-24T06:19:47.818Z,10.67
2019-04-24T06:22:13.460Z,7.50
2019-04-24T06:24:37.886Z,12.17
2019-04-24T06:27:14.435Z,9.93
2019-04-24T06:43:16.561Z,9.90
2019-04-24T06:45:47.158Z,8.93
2019-04-24T06:48:21.449Z,11.83
2019-04-24T06:53:20.574Z,12.03
2019-04-24T06:56:15.211Z,10.30
2019-04-24T06:58:26.018Z,8.83
2019-04-24T07:01:19.101Z,10.53
2019-04-24T07:09:31.896Z,10.57
2019-04-24T07:12:09.875Z,11.00
2019-04-24T07:14:47.871Z,9.43
2019-04-24T07:19:49.422Z,9.53
2019-04-24T07:22:27.324Z,16.00
2019-04-24T07:27:48.481Z,10.20
2019-04-24T07:36:04.647Z,7.33
2019-04-24T07:38:36.421Z,8.13
2019-04-24T07:41:34.498Z,9.30
2019-04-24T07:49:27.975Z,7.07
2019-04-24T07:51:59.033Z,6.17
2019-04-24T08:07:12.753Z,6.13
2019-04-24T08:10:17.296Z,7.53
2019-04-24T08:12:31.978Z,6.57
2019-04-24T08:15:14.247Z,6.30
2019-04-24T08:20:10.813Z,8.77
2019-04-24T08:22:37.054Z,6.23
2019-04-24T08:27:45.057Z,8.03
2019-04-24T08:30:14.638Z,8.37
2019-04-24T08:35:22.987Z,7.50
2019-04-24T08:38:09.625Z,8.47
2019-04-24T08:40:58.203Z,8.87
2019-04-24T08:43:28.774Z,9.47
2019-04-24T08:49:02.394Z,5.77
2019-04-24T08:54:04.334Z,6.30
2019-04-24T08:56:43.399Z,9.13
2019-04-24T08:59:30.385Z,8.70
2019-04-24T09:01:55.545Z,6.43
2019-04-24T09:04:43.068Z,8.17
2019-04-24T09:06:52.689Z,8.63
2019-04-24T09:10:14.619Z,8.43
2019-04-24T09:15:27.158Z,10.10
2019-04-24T09:17:59.035Z,10.63
2019-04-24T09:23:27.221Z,14.43
2019-04-24T09:28:39.677Z,6.33
2019-04-24T09:31:07.775Z,11.43
2019-04-24T09:33:42.841Z,8.43
2019-04-24T09:38:49.122Z,9.50
2019-04-24T09:44:00.942Z,7.50
2019-04-24T09:54:44.868Z,7.37
2019-04-24T09:57:20.802Z,7.57
2019-04-24T10:05:45.482Z,13.00
2019-04-24T10:08:02.480Z,9.10
2019-04-24T10:10:28.196Z,11.13
2019-04-24T10:13:00.873Z,25.33
2019-04-24T10:15:42.710Z,14.33
2019-04-24T10:18:41.483Z,7.67
2019-04-24T10:20:44.683Z,5.77
2019-04-24T10:32:12.277Z,5.93
2019-04-24T10:38:12.580Z,7.13
2019-04-24T10:43:10.575Z,6.90
2019-04-24T10:45:46.600Z,5.70
2019-04-24T10:48:19.072Z,9.80
2019-04-24T10:51:03.874Z,7.47
2019-04-24T10:53:42.859Z,10.07
2019-04-24T10:56:18.771Z,7.57
2019-04-24T11:01:50.109Z,7.63
2019-04-24T11:04:45.214Z,4.73
2019-04-24T11:10:30.262Z,7.07
2019-04-24T11:18:55.191Z,9.77
2019-04-24T11:21:51.465Z,7.87
2019-04-24T11:24:11.346Z,7.83
2019-04-24T11:26:38.603Z,6.93
2019-04-24T11:29:24.103Z,5.53
2019-04-24T11:35:16.058Z,6.83
2019-04-24T11:38:18.820Z,6.53
2019-04-24T11:41:09.804Z,6.27
2019-04-24T11:43:50.734Z,5.50
2019-04-24T11:49:47.057Z,6.47
2019-04-24T11:52:57.277Z,8.30
2019-04-24T11:55:17.279Z,6.47
2019-04-24T12:00:22.414Z,6.47
2019-04-24T12:03:09.242Z,3.27
2019-04-24T12:05:55.661Z,5.67
2019-04-24T12:16:52.939Z,5.87
2019-04-24T12:19:45.090Z,3.37
2019-04-24T12:22:12.250Z,4.03
2019-04-24T12:27:17.281Z,4.00
2019-04-24T12:29:48.701Z,5.33
2019-04-24T12:32:25.826Z,4.83
2019-04-24T12:35:28.568Z,4.70
2019-04-24T12:43:06.914Z,5.62
2019-04-24T12:45:48.874Z,3.55
2019-04-24T12:48:06.787Z,3.50
2019-04-24T12:50:52.654Z,6.03
2019-04-24T12:53:15.972Z,4.27
2019-04-24T12:56:07.875Z,6.70
2019-04-24T12:59:11.449Z,6.12
2019-04-24T13:01:46.518Z,4.97
2019-04-24T13:06:52.674Z,5.80
2019-04-24T13:09:43.259Z,5.93
2019-04-24T13:12:41.615Z,5.90
2019-04-24T13:15:13.822Z,2.63
2019-04-24T13:19:58.255Z,7.17
2019-04-24T13:22:40.483Z,7.58
2019-04-24T13:25:32.031Z,7.28
2019-04-24T13:28:33.356Z,5.97
2019-04-24T13:31:12.172Z,6.90
2019-04-24T13:33:37.474Z,11.60
2019-04-24T13:38:46.084Z,7.77
2019-04-24T13:41:06.543Z,5.30
2019-04-24T13:44:00.101Z,8.97
2019-04-24T13:46:10.259Z,7.73
2019-04-24T13:48:54.575Z,5.83
2019-04-24T13:51:13.491Z,4.90
2019-04-24T13:56:16.036Z,6.60
2019-04-24T14:01:35.520Z,5.33
2019-04-24T14:12:28.516Z,10.67
2019-04-24T14:14:08.693Z,6.20
2019-04-24T14:19:35.380Z,9.07
2019-04-24T14:22:09.300Z,5.53
2019-04-24T14:24:39.418Z,5.90
2019-04-24T14:29:42.098Z,4.43
2019-04-24T14:32:08.625Z,4.03
2019-04-24T14:34:50.579Z,4.37
2019-04-24T14:37:15.337Z,2.67
2019-04-24T14:39:51.452Z,4.93
2019-04-24T14:45:06.992Z,2.10
2019-04-24T14:47:37.605Z,1.97
2019-04-24T14:57:43.999Z,1.30
2019-04-24T15:02:49.328Z,1.30
2019-04-24T15:05:30.292Z,1.73
2019-04-24T15:08:02.955Z,2.23
2019-04-24T15:10:24.725Z,1.20
2019-04-24T15:13:08.521Z,1.97
2019-04-24T15:20:44.145Z,2.93
2019-04-24T15:23:15.767Z,3.20
2019-04-24T15:30:52.114Z,3.23
2019-04-24T15:33:46.377Z,2.57
2019-04-24T15:38:24.189Z,2.43
2019-04-24T15:41:09.199Z,2.73
2019-04-24T15:43:25.232Z,1.67
2019-04-24T15:48:41.998Z,2.40
2019-04-24T15:51:23.805Z,4.13
2019-04-24T15:53:09.145Z,1.60
2019-04-24T15:55:40.725Z,3.60
2019-04-24T15:58:20.034Z,4.73
2019-04-24T16:01:26.091Z,4.17
2019-04-24T16:03:55.301Z,5.87
2019-04-24T16:06:01.908Z,3.27
2019-04-24T16:08:32.120Z,3.80
2019-04-24T16:11:02.294Z,3.87
2019-04-24T16:13:38.615Z,3.53
2019-04-24T16:16:31.355Z,3.30
2019-04-24T16:19:23.779Z,3.03
2019-04-24T16:26:45.436Z,4.53
2019-04-24T16:32:23.862Z,5.47
2019-04-24T16:34:16.476Z,2.70
2019-04-24T16:39:47.349Z,2.37
2019-04-24T16:42:14.465Z,2.07
2019-04-24T16:44:28.639Z,2.27
2019-04-24T16:47:04.620Z,2.00
2019-04-24T16:52:14.336Z,1.80
2019-04-24T16:54:29.691Z,5.10
2019-04-24T16:59:28.935Z,5.93
2019-04-24T17:04:55.512Z,2.70
2019-04-24T17:09:59.392Z,1.60
2019-04-24T17:12:19.610Z,2.23
2019-04-24T17:14:56.799Z,1.83
2019-04-24T17:20:24.998Z,1.80
2019-04-24T17:25:30.101Z,3.70
2019-04-24T17:28:08.441Z,1.60
2019-04-24T17:35:56.246Z,2.83
2019-04-24T17:37:38.313Z,1.90
2019-04-24T17:40:15.107Z,3.13
2019-04-24T17:43:03.784Z,1.63
2019-04-24T17:45:47.380Z,2.27
2019-04-24T17:50:43.344Z,2.53
2019-04-24T17:53:21.681Z,4.63
2019-04-24T17:58:04.587Z,3.10
2019-04-24T18:00:55.349Z,2.10
2019-04-24T18:03:26.110Z,2.97
2019-04-24T18:05:56.427Z,2.33
2019-04-24T18:08:26.593Z,2.63
2019-04-24T18:10:57.175Z,1.97
2019-04-24T18:13:27.309Z,2.10
2019-04-24T18:15:57.441Z,2.37
2019-04-24T18:18:27.464Z,2.33
2019-04-24T18:20:57.561Z,1.93
2019-04-24T18:23:28.063Z,1.70
2019-04-24T18:26:20.189Z,4.27
2019-04-24T18:28:51.786Z,2.10
2019-04-24T18:31:22.301Z,3.77
2019-04-24T18:33:52.463Z,2.73
2019-04-24T18:36:22.824Z,2.37
2019-04-24T18:38:53.073Z,3.47
2019-04-24T18:41:23.157Z,1.87
2019-04-24T18:43:53.300Z,3.40
2019-04-24T18:46:23.427Z,2.40
2019-04-24T18:48:58.256Z,1.70
2019-04-24T18:51:28.418Z,3.27
2019-04-24T18:54:01.347Z,3.13
2019-04-24T18:56:31.678Z,3.73
2019-04-24T18:59:01.859Z,1.70
2019-04-24T19:01:32.171Z,2.37
2019-04-24T19:04:02.392Z,3.70
2019-04-24T19:06:33.687Z,2.30
2019-04-24T19:09:06.410Z,2.80
2019-04-24T19:11:37.361Z,2.83
2019-04-24T19:14:07.599Z,3.50
2019-04-24T19:16:38.139Z,2.23
2019-04-24T19:19:08.473Z,1.70
2019-04-24T19:21:38.566Z,2.40
2019-04-24T19:24:09.740Z,1.77
2019-04-24T19:26:41.584Z,2.00
2019-04-24T19:29:12.204Z,3.80
2019-04-24T19:31:42.484Z,3.73
2019-04-24T19:34:13.625Z,2.17
2019-04-24T19:36:44.120Z,3.43
2019-04-24T19:39:14.319Z,4.30
2019-04-24T19:41:45.304Z,2.40
2019-04-24T19:44:15.474Z,4.30
2019-04-24T19:46:45.648Z,2.10
2019-04-24T19:49:16.250Z,2.20
2019-04-24T19:51:46.578Z,1.83
2019-04-24T19:54:16.602Z,2.97
2019-04-24T19:56:46.633Z,2.53
2019-04-24T19:59:16.817Z,4.43
2019-04-24T20:01:48.872Z,2.83
2019-04-24T20:04:19.524Z,1.73
2019-04-24T20:06:51.367Z,2.17
2019-04-24T20:09:41.088Z,2.00
2019-04-24T20:12:12.914Z,3.70
2019-04-24T20:14:43.158Z,3.20
2019-04-24T20:17:13.480Z,4.87
2019-04-24T20:19:44.358Z,3.63
2019-04-24T20:22:15.079Z,2.93
2019-04-24T20:24:45.218Z,2.13
2019-04-24T20:27:15.724Z,3.10
2019-04-24T20:29:46.009Z,2.73
2019-04-24T20:32:18.375Z,2.20
2019-04-24T20:34:48.484Z,2.37
2019-04-24T20:37:18.690Z,2.00
2019-04-24T20:39:48.844Z,2.27
2019-04-24T20:42:19.347Z,2.10
2019-04-24T20:44:50.964Z,2.53
2019-04-24T20:47:22.430Z,2.67
2019-04-24T20:49:53.452Z,2.67
2019-04-24T20:52:23.542Z,3.03
2019-04-24T20:54:53.631Z,2.67
2019-04-24T20:57:23.961Z,2.40
2019-04-24T20:59:54.251Z,3.37
2019-04-24T21:02:25.853Z,4.00
2019-04-24T21:04:55.892Z,3.00
2019-04-24T21:07:57.304Z,3.87
2019-04-24T21:10:32.672Z,3.30
2019-04-24T21:13:03.080Z,2.27
2019-04-24T21:15:33.162Z,2.00
2019-04-24T21:18:03.280Z,2.87
2019-04-24T21:20:33.499Z,2.83
2019-04-24T21:23:03.648Z,2.20
2019-04-24T21:25:33.673Z,3.43
2019-04-24T21:28:03.720Z,2.10
2019-04-24T21:30:33.804Z,2.00
2019-04-24T21:33:09.665Z,2.63
2019-04-24T21:35:39.950Z,3.07
2019-04-24T21:38:10.164Z,2.77
2019-04-24T21:40:41.749Z,1.70
2019-04-24T21:43:23.972Z,2.17
2019-04-24T21:45:44.337Z,2.20
2019-04-24T21:48:14.454Z,2.50
2019-04-24T21:50:44.502Z,1.93
2019-04-24T21:53:14.591Z,1.60
2019-04-24T21:55:44.625Z,2.87
2019-04-24T21:58:14.696Z,3.10
2019-04-24T22:01:05.793Z,3.37
2019-04-24T22:04:01.439Z,2.70
2019-04-24T22:06:37.054Z,2.20
2019-04-24T22:09:12.306Z,1.87
2019-04-24T22:11:42.509Z,3.43
2019-04-24T22:14:14.096Z,3.60
2019-04-24T22:16:44.527Z,2.30
2019-04-24T22:19:14.795Z,2.03
2019-04-24T22:21:52.075Z,2.27
2019-04-24T22:24:31.627Z,2.43
2019-04-24T22:27:02.295Z,2.37
2019-04-24T22:29:32.989Z,2.60
2019-04-24T22:32:14.980Z,2.90
2019-04-24T22:34:49.762Z,2.03
2019-04-24T22:37:19.826Z,3.30
2019-04-24T22:40:13.814Z,1.87
2019-04-24T22:42:43.851Z,2.63
2019-04-24T22:45:15.177Z,3.30
2019-04-24T22:47:45.197Z,2.57
2019-04-24T22:50:15.229Z,1.80
2019-04-24T22:52:45.598Z,2.10
2019-04-24T22:55:18.957Z,3.37
2019-04-24T22:57:48.982Z,2.60
2019-04-24T23:00:30.704Z,1.60
2019-04-24T23:03:01.406Z,2.07
2019-04-24T23:05:31.793Z,2.67
2019-04-24T23:08:01.873Z,2.87
2019-04-24T23:10:37.130Z,2.20
2019-04-24T23:13:03.942Z,3.17
2019-04-24T23:15:39.197Z,2.73
2019-04-24T23:18:09.331Z,2.20
2019-04-24T23:20:45.906Z,4.17
2019-04-24T23:23:44.416Z,2.07
2019-04-24T23:26:24.194Z,3.37
2019-04-24T23:29:08.969Z,5.90
2019-04-24T23:32:07.363Z,2.50
2019-04-24T23:34:39.347Z,4.07
2019-04-24T23:37:09.502Z,3.47
2019-04-24T23:39:40.092Z,2.40
2019-04-24T23:42:10.788Z,4.20
2019-04-24T23:44:42.472Z,3.73
2019-04-24T23:47:12.650Z,2.43
2019-04-24T23:49:43.241Z,3.50
2019-04-24T23:52:13.786Z,3.57
2019-04-24T23:55:01.174Z,2.37
2019-04-24T23:57:15.869Z,2.60
2019-04-24T23:59:46.848Z,2.47
